sensor_id;sensor_type;location;lat;lon;timestamp;temperature;humidity
6536;DHT22;34330;52.08032700;5.40923460;2022-07-23T00:02:11;20.60;68.60
6536;DHT22;34330;52.08032700;5.40923460;2022-07-23T00:04:40;20.60;68.40
6536;DHT22;34330;52.08032700;5.40923460;2022-07-23T00:07:08;20.60;68.90
6536;DHT22;34330;52.08032700;5.40923460;2022-07-23T00:09:36;20.50;68.80
6536;DHT22;34330;52.08032700;5.40923460;2022-07-23T00:12:04;20.50;68.60
6536;DHT22;34330;52.08032700;5.40923460;2022-07-23T00:14:32;20.40;69.20
6536;DHT22;34330;52.08032700;5.40923460;2022-07-23T00:17:00;20.40;68.80
6536;DHT22;34330;52.08032700;5.40923460;2022-07-23T00:19:28;20.40;69.10
6536;DHT22;34330;52.08032700;5.40923460;2022-07-23T00:21:58;20.30;69.20
6536;DHT22;34330;52.08032700;5.40923460;2022-07-23T00:24:26;20.30;69.30
6536;DHT22;34330;52.08032700;5.40923460;2022-07-23T00:26:54;20.30;69.30
6536;DHT22;34330;52.08032700;5.40923460;2022-07-23T00:29:21;20.20;69.20
6536;DHT22;34330;52.08032700;5.40923460;2022-07-23T00:31:49;20.10;69.00
6536;DHT22;34330;52.08032700;5.40923460;2022-07-23T00:34:17;20.10;69.00
6536;DHT22;34330;52.08032700;5.40923460;2022-07-23T00:36:45;20.10;69.10
6536;DHT22;34330;52.08032700;5.40923460;2022-07-23T00:39:14;20.00;69.10
6536;DHT22;34330;52.08032700;5.40923460;2022-07-23T00:41:42;20.10;69.60
6536;DHT22;34330;52.08032700;5.40923460;2022-07-23T00:44:18;20.00;69.30
6536;DHT22;34330;52.08032700;5.40923460;2022-07-23T00:46:48;20.00;69.40
6536;DHT22;34330;52.08032700;5.40923460;2022-07-23T00:49:16;19.90;69.80
6536;DHT22;34330;52.08032700;5.40923460;2022-07-23T00:51:44;19.90;69.60
6536;DHT22;34330;52.08032700;5.40923460;2022-07-23T00:54:14;19.90;69.70
6536;DHT22;34330;52.08032700;5.40923460;2022-07-23T00:56:42;19.90;69.90
6536;DHT22;34330;52.08032700;5.40923460;2022-07-23T00:59:11;19.90;69.70
6536;DHT22;34330;52.08032700;5.40923460;2022-07-23T01:01:39;19.80;69.90
6536;DHT22;34330;52.08032700;5.40923460;2022-07-23T01:04:08;19.70;69.50
6536;DHT22;34330;52.08032700;5.40923460;2022-07-23T01:06:37;19.70;69.70
6536;DHT22;34330;52.08032700;5.40923460;2022-07-23T01:09:06;19.70;70.30
6536;DHT22;34330;52.08032700;5.40923460;2022-07-23T01:11:37;19.70;70.30
6536;DHT22;34330;52.08032700;5.40923460;2022-07-23T01:14:09;19.60;69.80
6536;DHT22;34330;52.08032700;5.40923460;2022-07-23T01:16:38;19.60;69.90
6536;DHT22;34330;52.08032700;5.40923460;2022-07-23T01:19:06;19.60;70.00
6536;DHT22;34330;52.08032700;5.40923460;2022-07-23T01:21:36;19.50;70.00
6536;DHT22;34330;52.08032700;5.40923460;2022-07-23T01:24:06;19.50;70.00
6536;DHT22;34330;52.08032700;5.40923460;2022-07-23T01:26:34;19.50;70.10
6536;DHT22;34330;52.08032700;5.40923460;2022-07-23T01:29:03;19.40;70.40
6536;DHT22;34330;52.08032700;5.40923460;2022-07-23T01:31:31;19.40;70.30
6536;DHT22;34330;52.08032700;5.40923460;2022-07-23T01:33:59;19.40;70.30
6536;DHT22;34330;52.08032700;5.40923460;2022-07-23T01:36:28;19.30;70.30
6536;DHT22;34330;52.08032700;5.40923460;2022-07-23T01:38:55;19.30;70.50
6536;DHT22;34330;52.08032700;5.40923460;2022-07-23T01:41:26;19.30;70.50
6536;DHT22;34330;52.08032700;5.40923460;2022-07-23T01:43:54;19.30;71.00
6536;DHT22;34330;52.08032700;5.40923460;2022-07-23T01:46:22;19.20;70.80
6536;DHT22;34330;52.08032700;5.40923460;2022-07-23T01:51:18;19.10;71.10
6536;DHT22;34330;52.08032700;5.40923460;2022-07-23T01:53:46;19.10;71.00
6536;DHT22;34330;52.08032700;5.40923460;2022-07-23T01:56:14;19.10;71.00
6536;DHT22;34330;52.08032700;5.40923460;2022-07-23T01:58:43;19.10;71.00
6536;DHT22;34330;52.08032700;5.40923460;2022-07-23T02:01:11;19.10;71.00
6536;DHT22;34330;52.08032700;5.40923460;2022-07-23T02:03:39;19.00;70.90
6536;DHT22;34330;52.08032700;5.40923460;2022-07-23T02:06:07;19.00;71.00
6536;DHT22;34330;52.08032700;5.40923460;2022-07-23T02:08:35;18.90;71.10
6536;DHT22;34330;52.08032700;5.40923460;2022-07-23T02:11:03;18.90;71.10
6536;DHT22;34330;52.08032700;5.40923460;2022-07-23T02:13:31;18.90;71.10
6536;DHT22;34330;52.08032700;5.40923460;2022-07-23T02:16:01;18.90;71.20
6536;DHT22;34330;52.08032700;5.40923460;2022-07-23T02:18:29;18.80;71.00
6536;DHT22;34330;52.08032700;5.40923460;2022-07-23T02:23:26;18.80;71.10
6536;DHT22;34330;52.08032700;5.40923460;2022-07-23T02:25:54;18.70;71.10
6536;DHT22;34330;52.08032700;5.40923460;2022-07-23T02:28:22;18.70;71.20
6536;DHT22;34330;52.08032700;5.40923460;2022-07-23T02:33:19;18.60;71.10
6536;DHT22;34330;52.08032700;5.40923460;2022-07-23T02:35:47;18.60;71.10
6536;DHT22;34330;52.08032700;5.40923460;2022-07-23T02:38:15;18.50;71.00
6536;DHT22;34330;52.08032700;5.40923460;2022-07-23T02:40:43;18.40;71.00
6536;DHT22;34330;52.08032700;5.40923460;2022-07-23T02:43:11;18.40;71.20
6536;DHT22;34330;52.08032700;5.40923460;2022-07-23T02:45:39;18.40;71.30
6536;DHT22;34330;52.08032700;5.40923460;2022-07-23T02:48:07;18.40;71.70
6536;DHT22;34330;52.08032700;5.40923460;2022-07-23T02:50:36;18.30;71.80
6536;DHT22;34330;52.08032700;5.40923460;2022-07-23T02:53:04;18.20;71.70
6536;DHT22;34330;52.08032700;5.40923460;2022-07-23T02:58:00;18.20;71.80
6536;DHT22;34330;52.08032700;5.40923460;2022-07-23T03:00:28;18.20;71.80
6536;DHT22;34330;52.08032700;5.40923460;2022-07-23T03:02:59;18.20;71.90
6536;DHT22;34330;52.08032700;5.40923460;2022-07-23T03:05:27;18.20;72.00
6536;DHT22;34330;52.08032700;5.40923460;2022-07-23T03:07:56;18.10;72.00
6536;DHT22;34330;52.08032700;5.40923460;2022-07-23T03:10:27;18.10;72.00
6536;DHT22;34330;52.08032700;5.40923460;2022-07-23T03:12:55;18.00;71.90
6536;DHT22;34330;52.08032700;5.40923460;2022-07-23T03:20:20;18.00;72.10
6536;DHT22;34330;52.08032700;5.40923460;2022-07-23T03:25:17;17.90;72.20
6536;DHT22;34330;52.08032700;5.40923460;2022-07-23T03:27:45;17.90;72.30
6536;DHT22;34330;52.08032700;5.40923460;2022-07-23T03:30:13;17.90;72.50
6536;DHT22;34330;52.08032700;5.40923460;2022-07-23T03:32:41;17.90;72.50
6536;DHT22;34330;52.08032700;5.40923460;2022-07-23T03:40:08;17.80;72.60
6536;DHT22;34330;52.08032700;5.40923460;2022-07-23T03:42:37;17.80;72.70
6536;DHT22;34330;52.08032700;5.40923460;2022-07-23T03:45:08;17.80;72.70
6536;DHT22;34330;52.08032700;5.40923460;2022-07-23T03:50:07;17.80;72.40
6536;DHT22;34330;52.08032700;5.40923460;2022-07-23T03:55:04;17.70;72.30
6536;DHT22;34330;52.08032700;5.40923460;2022-07-23T04:00:03;17.70;72.50
6536;DHT22;34330;52.08032700;5.40923460;2022-07-23T04:02:32;17.60;73.50
6536;DHT22;34330;52.08032700;5.40923460;2022-07-23T04:09:57;17.60;73.70
6536;DHT22;34330;52.08032700;5.40923460;2022-07-23T04:12:25;17.60;73.60
6536;DHT22;34330;52.08032700;5.40923460;2022-07-23T04:17:23;17.60;73.40
6536;DHT22;34330;52.08032700;5.40923460;2022-07-23T04:32:12;17.60;73.80
6536;DHT22;34330;52.08032700;5.40923460;2022-07-23T04:34:41;17.60;73.80
6536;DHT22;34330;52.08032700;5.40923460;2022-07-23T04:39:37;17.60;73.90
6536;DHT22;34330;52.08032700;5.40923460;2022-07-23T04:52:00;17.70;74.20
6536;DHT22;34330;52.08032700;5.40923460;2022-07-23T04:54:28;17.60;74.00
6536;DHT22;34330;52.08032700;5.40923460;2022-07-23T05:06:49;17.70;74.80
6536;DHT22;34330;52.08032700;5.40923460;2022-07-23T05:09:18;17.70;75.00
6536;DHT22;34330;52.08032700;5.40923460;2022-07-23T05:14:14;17.70;75.40
6536;DHT22;34330;52.08032700;5.40923460;2022-07-23T05:24:08;17.80;76.70
6536;DHT22;34330;52.08032700;5.40923460;2022-07-23T05:26:37;17.90;76.80
6536;DHT22;34330;52.08032700;5.40923460;2022-07-23T05:29:05;18.00;76.90
6536;DHT22;34330;52.08032700;5.40923460;2022-07-23T05:31:33;18.10;77.00
6536;DHT22;34330;52.08032700;5.40923460;2022-07-23T05:36:31;18.20;77.10
6536;DHT22;34330;52.08032700;5.40923460;2022-07-23T05:41:29;18.30;77.20
6536;DHT22;34330;52.08032700;5.40923460;2022-07-23T05:43:58;18.30;77.30
6536;DHT22;34330;52.08032700;5.40923460;2022-07-23T05:46:27;18.40;77.50
6536;DHT22;34330;52.08032700;5.40923460;2022-07-23T05:48:55;18.50;77.70
6536;DHT22;34330;52.08032700;5.40923460;2022-07-23T05:51:24;18.60;77.90
6536;DHT22;34330;52.08032700;5.40923460;2022-07-23T05:53:52;18.60;78.00
6536;DHT22;34330;52.08032700;5.40923460;2022-07-23T05:56:20;18.70;78.20
6536;DHT22;34330;52.08032700;5.40923460;2022-07-23T06:01:18;18.80;78.30
6536;DHT22;34330;52.08032700;5.40923460;2022-07-23T06:03:46;18.90;78.30
6536;DHT22;34330;52.08032700;5.40923460;2022-07-23T06:06:14;19.00;78.30
6536;DHT22;34330;52.08032700;5.40923460;2022-07-23T06:08:42;19.00;78.00
6536;DHT22;34330;52.08032700;5.40923460;2022-07-23T06:11:11;19.10;78.00
6536;DHT22;34330;52.08032700;5.40923460;2022-07-23T06:13:39;19.30;78.10
6536;DHT22;34330;52.08032700;5.40923460;2022-07-23T06:16:07;19.30;77.90
6536;DHT22;34330;52.08032700;5.40923460;2022-07-23T06:18:37;19.40;77.40
6536;DHT22;34330;52.08032700;5.40923460;2022-07-23T06:21:05;19.50;77.10
6536;DHT22;34330;52.08032700;5.40923460;2022-07-23T06:26:22;19.70;77.40
6536;DHT22;34330;52.08032700;5.40923460;2022-07-23T06:28:50;19.80;77.60
6536;DHT22;34330;52.08032700;5.40923460;2022-07-23T06:31:18;19.90;77.30
6536;DHT22;34330;52.08032700;5.40923460;2022-07-23T06:33:47;20.00;77.30
6536;DHT22;34330;52.08032700;5.40923460;2022-07-23T06:36:15;20.10;77.30
6536;DHT22;34330;52.08032700;5.40923460;2022-07-23T06:38:43;20.10;77.50
6536;DHT22;34330;52.08032700;5.40923460;2022-07-23T06:41:14;20.20;77.40
6536;DHT22;34330;52.08032700;5.40923460;2022-07-23T06:43:42;20.20;77.60
6536;DHT22;34330;52.08032700;5.40923460;2022-07-23T06:46:10;20.40;77.60
6536;DHT22;34330;52.08032700;5.40923460;2022-07-23T06:48:38;17.00;73.30
6536;DHT22;34330;52.08032700;5.40923460;2022-07-23T06:51:08;20.60;76.70
6536;DHT22;34330;52.08032700;5.40923460;2022-07-23T06:53:36;20.60;76.80
6536;DHT22;34330;52.08032700;5.40923460;2022-07-23T06:56:04;23.80;79.70
6536;DHT22;34330;52.08032700;5.40923460;2022-07-23T06:58:32;20.80;76.30
6536;DHT22;34330;52.08032700;5.40923460;2022-07-23T07:01:00;21.00;75.50
6536;DHT22;34330;52.08032700;5.40923460;2022-07-23T07:03:28;21.00;75.20
6536;DHT22;34330;52.08032700;5.40923460;2022-07-23T07:05:56;21.10;74.90
6536;DHT22;34330;52.08032700;5.40923460;2022-07-23T07:08:26;21.20;74.80
6536;DHT22;34330;52.08032700;5.40923460;2022-07-23T07:10:54;21.20;74.60
6536;DHT22;34330;52.08032700;5.40923460;2022-07-23T07:13:24;21.30;74.20
6536;DHT22;34330;52.08032700;5.40923460;2022-07-23T07:15:52;21.30;74.20
6536;DHT22;34330;52.08032700;5.40923460;2022-07-23T07:18:20;24.10;76.90
6536;DHT22;34330;52.08032700;5.40923460;2022-07-23T07:20:48;23.90;76.40
6536;DHT22;34330;52.08032700;5.40923460;2022-07-23T07:23:17;21.60;73.70
6536;DHT22;34330;52.08032700;5.40923460;2022-07-23T07:25:48;21.70;73.70
6536;DHT22;34330;52.08032700;5.40923460;2022-07-23T07:28:16;21.80;73.60
6536;DHT22;34330;52.08032700;5.40923460;2022-07-23T07:30:44;21.80;73.30
6536;DHT22;34330;52.08032700;5.40923460;2022-07-23T07:33:12;21.90;72.70
6536;DHT22;34330;52.08032700;5.40923460;2022-07-23T07:35:40;22.00;72.70
6536;DHT22;34330;52.08032700;5.40923460;2022-07-23T07:38:08;22.10;72.20
6536;DHT22;34330;52.08032700;5.40923460;2022-07-23T07:40:35;22.10;72.20
6536;DHT22;34330;52.08032700;5.40923460;2022-07-23T07:43:05;22.20;71.90
6536;DHT22;34330;52.08032700;5.40923460;2022-07-23T07:45:33;23.90;73.10
6536;DHT22;34330;52.08032700;5.40923460;2022-07-23T07:48:00;22.30;71.50
6536;DHT22;34330;52.08032700;5.40923460;2022-07-23T07:50:28;22.40;71.10
6536;DHT22;34330;52.08032700;5.40923460;2022-07-23T07:52:56;22.50;71.20
6536;DHT22;34330;52.08032700;5.40923460;2022-07-23T07:55:24;22.50;70.70
6536;DHT22;34330;52.08032700;5.40923460;2022-07-23T07:57:53;22.60;70.40
6536;DHT22;34330;52.08032700;5.40923460;2022-07-23T08:00:29;22.70;70.10
6536;DHT22;34330;52.08032700;5.40923460;2022-07-23T08:02:58;22.80;69.70
6536;DHT22;34330;52.08032700;5.40923460;2022-07-23T08:05:30;22.80;69.60
6536;DHT22;34330;52.08032700;5.40923460;2022-07-23T08:07:59;22.80;69.70
6536;DHT22;34330;52.08032700;5.40923460;2022-07-23T08:10:27;25.60;71.90
6536;DHT22;34330;52.08032700;5.40923460;2022-07-23T08:12:57;22.90;70.00
6536;DHT22;34330;52.08032700;5.40923460;2022-07-23T08:15:27;23.00;69.90
6536;DHT22;34330;52.08032700;5.40923460;2022-07-23T08:17:57;23.10;69.60
6536;DHT22;34330;52.08032700;5.40923460;2022-07-23T08:20:25;23.10;69.00
6536;DHT22;34330;52.08032700;5.40923460;2022-07-23T08:22:57;23.20;69.30
6536;DHT22;34330;52.08032700;5.40923460;2022-07-23T08:25:27;23.30;68.50
6536;DHT22;34330;52.08032700;5.40923460;2022-07-23T08:27:56;23.40;68.80
6536;DHT22;34330;52.08032700;5.40923460;2022-07-23T08:30:24;23.30;67.40
6536;DHT22;34330;52.08032700;5.40923460;2022-07-23T08:32:59;23.50;67.70
6536;DHT22;34330;52.08032700;5.40923460;2022-07-23T08:35:31;25.20;68.50
6536;DHT22;34330;52.08032700;5.40923460;2022-07-23T08:38:01;23.60;67.60
6536;DHT22;34330;52.08032700;5.40923460;2022-07-23T08:40:31;24.60;67.70
6536;DHT22;34330;52.08032700;5.40923460;2022-07-23T08:42:59;23.70;66.20
6536;DHT22;34330;52.08032700;5.40923460;2022-07-23T08:45:29;26.80;69.00
6536;DHT22;34330;52.08032700;5.40923460;2022-07-23T08:47:58;23.80;66.50
6536;DHT22;34330;52.08032700;5.40923460;2022-07-23T08:50:29;23.80;65.80
6536;DHT22;34330;52.08032700;5.40923460;2022-07-23T08:52:59;23.90;65.90
6536;DHT22;34330;52.08032700;5.40923460;2022-07-23T08:55:29;24.00;66.00
6536;DHT22;34330;52.08032700;5.40923460;2022-07-23T08:57:57;24.10;66.10
6536;DHT22;34330;52.08032700;5.40923460;2022-07-23T09:00:25;24.10;65.50
6536;DHT22;34330;52.08032700;5.40923460;2022-07-23T09:02:53;24.20;65.60
6536;DHT22;34330;52.08032700;5.40923460;2022-07-23T09:05:23;24.20;65.90
6536;DHT22;34330;52.08032700;5.40923460;2022-07-23T09:08:11;24.30;65.80
6536;DHT22;34330;52.08032700;5.40923460;2022-07-23T09:10:44;24.30;63.70
6536;DHT22;34330;52.08032700;5.40923460;2022-07-23T09:13:23;24.40;64.50
6536;DHT22;34330;52.08032700;5.40923460;2022-07-23T09:15:54;24.50;63.80
6536;DHT22;34330;52.08032700;5.40923460;2022-07-23T09:18:38;24.60;64.00
6536;DHT22;34330;52.08032700;5.40923460;2022-07-23T09:21:20;24.70;63.80
6536;DHT22;34330;52.08032700;5.40923460;2022-07-23T09:23:54;24.90;63.90
6536;DHT22;34330;52.08032700;5.40923460;2022-07-23T09:26:31;24.90;63.50
6536;DHT22;34330;52.08032700;5.40923460;2022-07-23T09:29:05;24.90;62.90
6536;DHT22;34330;52.08032700;5.40923460;2022-07-23T09:31:48;25.00;63.00
6536;DHT22;34330;52.08032700;5.40923460;2022-07-23T09:34:19;25.00;62.70
6536;DHT22;34330;52.08032700;5.40923460;2022-07-23T09:36:53;25.10;62.70
6536;DHT22;34330;52.08032700;5.40923460;2022-07-23T09:39:32;25.10;62.60
6536;DHT22;34330;52.08032700;5.40923460;2022-07-23T09:42:13;25.20;62.30
6536;DHT22;34330;52.08032700;5.40923460;2022-07-23T09:44:42;25.20;61.70
6536;DHT22;34330;52.08032700;5.40923460;2022-07-23T09:47:11;25.30;62.50
6536;DHT22;34330;52.08032700;5.40923460;2022-07-23T09:49:39;25.50;62.10
6536;DHT22;34330;52.08032700;5.40923460;2022-07-23T09:52:12;25.50;61.40
6536;DHT22;34330;52.08032700;5.40923460;2022-07-23T09:54:40;27.10;62.30
6536;DHT22;34330;52.08032700;5.40923460;2022-07-23T09:57:09;25.60;61.80
6536;DHT22;34330;52.08032700;5.40923460;2022-07-23T09:59:43;25.70;61.60
6536;DHT22;34330;52.08032700;5.40923460;2022-07-23T10:02:13;27.90;63.50
6536;DHT22;34330;52.08032700;5.40923460;2022-07-23T10:04:42;25.80;61.00
6536;DHT22;34330;52.08032700;5.40923460;2022-07-23T10:07:13;27.50;62.00
6536;DHT22;34330;52.08032700;5.40923460;2022-07-23T10:09:47;25.90;60.30
6536;DHT22;34330;52.08032700;5.40923460;2022-07-23T10:12:17;26.00;60.20
6536;DHT22;34330;52.08032700;5.40923460;2022-07-23T10:15:02;26.00;59.90
6536;DHT22;34330;52.08032700;5.40923460;2022-07-23T10:17:31;26.10;60.60
6536;DHT22;34330;52.08032700;5.40923460;2022-07-23T10:19:59;26.20;59.70
6536;DHT22;34330;52.08032700;5.40923460;2022-07-23T10:22:31;26.30;60.00
6536;DHT22;34330;52.08032700;5.40923460;2022-07-23T10:25:10;27.80;60.00
6536;DHT22;34330;52.08032700;5.40923460;2022-07-23T10:30:43;26.40;58.40
6536;DHT22;34330;52.08032700;5.40923460;2022-07-23T10:33:22;26.50;58.30
6536;DHT22;34330;52.08032700;5.40923460;2022-07-23T10:35:58;29.50;60.20
6536;DHT22;34330;52.08032700;5.40923460;2022-07-23T10:38:32;26.70;57.80
6536;DHT22;34330;52.08032700;5.40923460;2022-07-23T10:41:04;26.70;58.50
6536;DHT22;34330;52.08032700;5.40923460;2022-07-23T10:43:32;26.80;58.50
6536;DHT22;34330;52.08032700;5.40923460;2022-07-23T10:46:22;26.90;58.70
6536;DHT22;34330;52.08032700;5.40923460;2022-07-23T10:49:25;27.00;57.20
6536;DHT22;34330;52.08032700;5.40923460;2022-07-23T10:52:17;27.10;56.60
6536;DHT22;34330;52.08032700;5.40923460;2022-07-23T10:54:49;27.20;56.10
6536;DHT22;34330;52.08032700;5.40923460;2022-07-23T10:57:18;27.30;56.50
6536;DHT22;34330;52.08032700;5.40923460;2022-07-23T11:00:18;28.20;57.90
6536;DHT22;34330;52.08032700;5.40923460;2022-07-23T11:02:51;27.40;55.80
6536;DHT22;34330;52.08032700;5.40923460;2022-07-23T11:05:20;27.40;55.80
6536;DHT22;34330;52.08032700;5.40923460;2022-07-23T11:08:15;27.50;55.30
6536;DHT22;34330;52.08032700;5.40923460;2022-07-23T11:10:48;27.50;55.70
6536;DHT22;34330;52.08032700;5.40923460;2022-07-23T11:13:36;28.80;56.50
6536;DHT22;34330;52.08032700;5.40923460;2022-07-23T11:19:03;27.70;56.30
6536;DHT22;34330;52.08032700;5.40923460;2022-07-23T11:21:42;27.80;55.50
6536;DHT22;34330;52.08032700;5.40923460;2022-07-23T11:24:11;29.00;55.50
6536;DHT22;34330;52.08032700;5.40923460;2022-07-23T11:27:00;28.50;54.20
6536;DHT22;34330;52.08032700;5.40923460;2022-07-23T11:29:44;28.10;54.40
6536;DHT22;34330;52.08032700;5.40923460;2022-07-23T11:32:38;28.10;53.20
6536;DHT22;34330;52.08032700;5.40923460;2022-07-23T11:35:20;28.10;53.10
6536;DHT22;34330;52.08032700;5.40923460;2022-07-23T11:37:48;28.10;54.00
6536;DHT22;34330;52.08032700;5.40923460;2022-07-23T11:40:20;28.10;53.60
6536;DHT22;34330;52.08032700;5.40923460;2022-07-23T11:42:55;28.10;53.80
6536;DHT22;34330;52.08032700;5.40923460;2022-07-23T11:45:25;28.00;53.70
6536;DHT22;34330;52.08032700;5.40923460;2022-07-23T11:47:54;28.00;53.90
6536;DHT22;34330;52.08032700;5.40923460;2022-07-23T11:50:25;28.00;53.80
6536;DHT22;34330;52.08032700;5.40923460;2022-07-23T11:52:54;28.10;52.60
6536;DHT22;34330;52.08032700;5.40923460;2022-07-23T11:55:25;28.10;53.50
6536;DHT22;34330;52.08032700;5.40923460;2022-07-23T11:57:56;28.20;53.80
6536;DHT22;34330;52.08032700;5.40923460;2022-07-23T12:00:27;28.20;52.40
6536;DHT22;34330;52.08032700;5.40923460;2022-07-23T12:02:57;28.90;54.40
6536;DHT22;34330;52.08032700;5.40923460;2022-07-23T12:05:27;29.50;53.20
6536;DHT22;34330;52.08032700;5.40923460;2022-07-23T12:07:57;28.50;52.90
6536;DHT22;34330;52.08032700;5.40923460;2022-07-23T12:10:28;28.70;53.30
6536;DHT22;34330;52.08032700;5.40923460;2022-07-23T12:12:58;29.80;53.40
6536;DHT22;34330;52.08032700;5.40923460;2022-07-23T12:15:28;28.90;52.40
6536;DHT22;34330;52.08032700;5.40923460;2022-07-23T12:17:59;29.10;52.00
6536;DHT22;34330;52.08032700;5.40923460;2022-07-23T12:20:30;29.20;51.40
6536;DHT22;34330;52.08032700;5.40923460;2022-07-23T12:23:00;29.30;51.00
6536;DHT22;34330;52.08032700;5.40923460;2022-07-23T12:25:30;29.40;50.80
6536;DHT22;34330;52.08032700;5.40923460;2022-07-23T12:28:02;29.40;50.80
6536;DHT22;34330;52.08032700;5.40923460;2022-07-23T12:30:33;29.40;50.30
6536;DHT22;34330;52.08032700;5.40923460;2022-07-23T12:33:02;29.40;50.40
6536;DHT22;34330;52.08032700;5.40923460;2022-07-23T12:35:33;29.40;50.70
6536;DHT22;34330;52.08032700;5.40923460;2022-07-23T12:38:03;29.50;50.40
6536;DHT22;34330;52.08032700;5.40923460;2022-07-23T12:40:33;29.50;50.60
6536;DHT22;34330;52.08032700;5.40923460;2022-07-23T12:43:08;29.40;49.80
6536;DHT22;34330;52.08032700;5.40923460;2022-07-23T12:45:45;29.50;49.70
6536;DHT22;34330;52.08032700;5.40923460;2022-07-23T12:48:19;29.50;50.40
6536;DHT22;34330;52.08032700;5.40923460;2022-07-23T12:50:51;29.60;50.40
6536;DHT22;34330;52.08032700;5.40923460;2022-07-23T12:53:21;29.60;50.80
6536;DHT22;34330;52.08032700;5.40923460;2022-07-23T12:55:56;29.60;48.80
6536;DHT22;34330;52.08032700;5.40923460;2022-07-23T12:58:44;29.70;49.30
6536;DHT22;34330;52.08032700;5.40923460;2022-07-23T13:01:25;29.80;49.20
6536;DHT22;34330;52.08032700;5.40923460;2022-07-23T13:03:59;29.90;49.10
6536;DHT22;34330;52.08032700;5.40923460;2022-07-23T13:06:28;30.00;48.70
6536;DHT22;34330;52.08032700;5.40923460;2022-07-23T13:08:57;30.00;48.90
6536;DHT22;34330;52.08032700;5.40923460;2022-07-23T13:11:27;30.10;48.80
6536;DHT22;34330;52.08032700;5.40923460;2022-07-23T13:14:03;31.70;49.60
6536;DHT22;34330;52.08032700;5.40923460;2022-07-23T13:16:35;30.10;48.40
6536;DHT22;34330;52.08032700;5.40923460;2022-07-23T13:19:04;30.20;48.30
6536;DHT22;34330;52.08032700;5.40923460;2022-07-23T13:21:38;30.20;48.30
6536;DHT22;34330;52.08032700;5.40923460;2022-07-23T13:24:07;30.20;48.70
6536;DHT22;34330;52.08032700;5.40923460;2022-07-23T13:26:36;30.20;48.80
6536;DHT22;34330;52.08032700;5.40923460;2022-07-23T13:29:06;30.30;48.50
6536;DHT22;34330;52.08032700;5.40923460;2022-07-23T13:31:37;30.30;47.70
6536;DHT22;34330;52.08032700;5.40923460;2022-07-23T13:34:06;30.40;48.50
6536;DHT22;34330;52.08032700;5.40923460;2022-07-23T13:36:34;31.00;48.50
6536;DHT22;34330;52.08032700;5.40923460;2022-07-23T13:39:03;30.50;46.60
6536;DHT22;34330;52.08032700;5.40923460;2022-07-23T13:41:33;30.60;48.00
6536;DHT22;34330;52.08032700;5.40923460;2022-07-23T13:44:02;30.70;46.00
6536;DHT22;34330;52.08032700;5.40923460;2022-07-23T13:46:31;30.80;46.80
6536;DHT22;34330;52.08032700;5.40923460;2022-07-23T13:49:00;32.60;47.40
6536;DHT22;34330;52.08032700;5.40923460;2022-07-23T13:51:29;31.50;46.70
6536;DHT22;34330;52.08032700;5.40923460;2022-07-23T13:53:57;31.30;46.80
6536;DHT22;34330;52.08032700;5.40923460;2022-07-23T13:56:26;31.40;46.60
6536;DHT22;34330;52.08032700;5.40923460;2022-07-23T13:58:54;31.50;46.00
6536;DHT22;34330;52.08032700;5.40923460;2022-07-23T14:01:22;31.50;45.70
6536;DHT22;34330;52.08032700;5.40923460;2022-07-23T14:03:52;31.50;45.50
6536;DHT22;34330;52.08032700;5.40923460;2022-07-23T14:06:20;31.50;45.10
6536;DHT22;34330;52.08032700;5.40923460;2022-07-23T14:08:59;34.60;47.30
6536;DHT22;34330;52.08032700;5.40923460;2022-07-23T14:11:27;31.40;44.50
6536;DHT22;34330;52.08032700;5.40923460;2022-07-23T14:13:57;31.80;45.30
6536;DHT22;34330;52.08032700;5.40923460;2022-07-23T14:16:27;31.20;45.00
6536;DHT22;34330;52.08032700;5.40923460;2022-07-23T14:18:56;31.10;45.60
6536;DHT22;34330;52.08032700;5.40923460;2022-07-23T14:21:27;31.00;45.40
6536;DHT22;34330;52.08032700;5.40923460;2022-07-23T14:23:55;32.30;45.50
6536;DHT22;34330;52.08032700;5.40923460;2022-07-23T14:26:23;30.90;45.30
6536;DHT22;34330;52.08032700;5.40923460;2022-07-23T14:28:51;30.90;45.00
6536;DHT22;34330;52.08032700;5.40923460;2022-07-23T14:31:19;30.90;45.30
6536;DHT22;34330;52.08032700;5.40923460;2022-07-23T14:33:48;31.20;45.10
6536;DHT22;34330;52.08032700;5.40923460;2022-07-23T14:36:17;31.00;45.40
6536;DHT22;34330;52.08032700;5.40923460;2022-07-23T14:38:46;31.40;44.90
6536;DHT22;34330;52.08032700;5.40923460;2022-07-23T14:41:14;31.20;45.40
6536;DHT22;34330;52.08032700;5.40923460;2022-07-23T14:43:42;31.20;45.10
6536;DHT22;34330;52.08032700;5.40923460;2022-07-23T14:46:12;31.80;45.40
6536;DHT22;34330;52.08032700;5.40923460;2022-07-23T14:48:40;33.40;46.50
6536;DHT22;34330;52.08032700;5.40923460;2022-07-23T14:51:08;31.40;45.20
6536;DHT22;34330;52.08032700;5.40923460;2022-07-23T14:53:39;31.40;45.20
6536;DHT22;34330;52.08032700;5.40923460;2022-07-23T14:56:07;31.50;45.20
6536;DHT22;34330;52.08032700;5.40923460;2022-07-23T14:58:35;31.60;45.20
6536;DHT22;34330;52.08032700;5.40923460;2022-07-23T15:01:03;31.70;44.80
6536;DHT22;34330;52.08032700;5.40923460;2022-07-23T15:03:31;31.70;44.80
6536;DHT22;34330;52.08032700;5.40923460;2022-07-23T15:06:09;31.80;45.10
6536;DHT22;34330;52.08032700;5.40923460;2022-07-23T15:08:39;31.90;45.80
6536;DHT22;34330;52.08032700;5.40923460;2022-07-23T15:11:07;32.10;45.10
6536;DHT22;34330;52.08032700;5.40923460;2022-07-23T15:13:36;32.30;45.40
6536;DHT22;34330;52.08032700;5.40923460;2022-07-23T15:16:05;32.40;44.80
6536;DHT22;34330;52.08032700;5.40923460;2022-07-23T15:18:36;32.50;44.70
6536;DHT22;34330;52.08032700;5.40923460;2022-07-23T15:21:05;32.60;44.30
6536;DHT22;34330;52.08032700;5.40923460;2022-07-23T15:23:34;32.60;44.00
6536;DHT22;34330;52.08032700;5.40923460;2022-07-23T15:26:07;32.70;43.70
6536;DHT22;34330;52.08032700;5.40923460;2022-07-23T15:28:36;32.90;43.90
6536;DHT22;34330;52.08032700;5.40923460;2022-07-23T15:31:04;33.00;43.60